sensor_id;sensor_type;location;lat;lon;timestamp;P1;durP1;ratioP1;P2;durP2;ratioP2
35685;SDS011;21808;42.142;24.720;2024-01-25T00:02:16;27.52;;;11.18;;
35685;SDS011;21808;42.142;24.720;2024-01-25T00:04:43;23.85;;;11.23;;
35685;SDS011;21808;42.142;24.720;2024-01-25T00:07:10;23.73;;;11.10;;
35685;SDS011;21808;42.142;24.720;2024-01-25T00:09:37;29.92;;;11.32;;
35685;SDS011;21808;42.142;24.720;2024-01-25T00:12:04;26.08;;;12.60;;
35685;SDS011;21808;42.142;24.720;2024-01-25T00:14:30;26.17;;;11.98;;
35685;SDS011;21808;42.142;24.720;2024-01-25T00:16:57;27.40;;;11.43;;
35685;SDS011;21808;42.142;24.720;2024-01-25T00:19:25;25.33;;;11.38;;
35685;SDS011;21808;42.142;24.720;2024-01-25T00:21:52;25.17;;;11.85;;
35685;SDS011;21808;42.142;24.720;2024-01-25T00:24:19;27.50;;;12.30;;
35685;SDS011;21808;42.142;24.720;2024-01-25T00:26:45;28.13;;;13.18;;
35685;SDS011;21808;42.142;24.720;2024-01-25T00:29:12;25.95;;;11.82;;
35685;SDS011;21808;42.142;24.720;2024-01-25T00:31:39;26.85;;;11.95;;
35685;SDS011;21808;42.142;24.720;2024-01-25T00:34:06;28.63;;;13.35;;
35685;SDS011;21808;42.142;24.720;2024-01-25T00:36:34;26.17;;;10.07;;
35685;SDS011;21808;42.142;24.720;2024-01-25T00:39:01;30.42;;;13.63;;
35685;SDS011;21808;42.142;24.720;2024-01-25T00:41:29;29.85;;;11.10;;
35685;SDS011;21808;42.142;24.720;2024-01-25T00:43:58;23.77;;;11.70;;
35685;SDS011;21808;42.142;24.720;2024-01-25T00:46:25;21.17;;;9.88;;
35685;SDS011;21808;42.142;24.720;2024-01-25T00:48:52;19.70;;;8.57;;
35685;SDS011;21808;42.142;24.720;2024-01-25T00:51:20;16.48;;;7.03;;
35685;SDS011;21808;42.142;24.720;2024-01-25T00:53:50;21.20;;;8.73;;
35685;SDS011;21808;42.142;24.720;2024-01-25T00:56:16;19.60;;;8.20;;
35685;SDS011;21808;42.142;24.720;2024-01-25T00:58:43;16.33;;;7.30;;
35685;SDS011;21808;42.142;24.720;2024-01-25T01:01:10;21.92;;;8.75;;
35685;SDS011;21808;42.142;24.720;2024-01-25T01:03:37;19.05;;;7.30;;
35685;SDS011;21808;42.142;24.720;2024-01-25T01:06:05;16.27;;;6.00;;
35685;SDS011;21808;42.142;24.720;2024-01-25T01:08:34;11.50;;;5.85;;
35685;SDS011;21808;42.142;24.720;2024-01-25T01:11:02;12.43;;;7.03;;
35685;SDS011;21808;42.142;24.720;2024-01-25T01:13:29;11.57;;;5.97;;
35685;SDS011;21808;42.142;24.720;2024-01-25T01:15:56;8.40;;;2.42;;
35685;SDS011;21808;42.142;24.720;2024-01-25T01:18:23;9.38;;;2.47;;
35685;SDS011;21808;42.142;24.720;2024-01-25T01:20:49;6.97;;;2.20;;
35685;SDS011;21808;42.142;24.720;2024-01-25T01:23:16;8.70;;;2.38;;
35685;SDS011;21808;42.142;24.720;2024-01-25T01:25:43;7.20;;;2.33;;
35685;SDS011;21808;42.142;24.720;2024-01-25T01:28:11;6.40;;;2.03;;
35685;SDS011;21808;42.142;24.720;2024-01-25T01:30:38;8.57;;;2.97;;
35685;SDS011;21808;42.142;24.720;2024-01-25T01:33:08;8.10;;;2.20;;
35685;SDS011;21808;42.142;24.720;2024-01-25T01:35:34;9.30;;;2.67;;
35685;SDS011;21808;42.142;24.720;2024-01-25T01:38:01;9.85;;;2.60;;
35685;SDS011;21808;42.142;24.720;2024-01-25T01:40:28;6.40;;;1.98;;
35685;SDS011;21808;42.142;24.720;2024-01-25T01:42:58;7.15;;;2.13;;
35685;SDS011;21808;42.142;24.720;2024-01-25T01:45:26;8.25;;;2.85;;
35685;SDS011;21808;42.142;24.720;2024-01-25T01:47:54;8.48;;;2.70;;
35685;SDS011;21808;42.142;24.720;2024-01-25T01:50:21;8.50;;;2.33;;
35685;SDS011;21808;42.142;24.720;2024-01-25T01:52:48;8.13;;;2.70;;
35685;SDS011;21808;42.142;24.720;2024-01-25T01:55:16;8.07;;;2.08;;
35685;SDS011;21808;42.142;24.720;2024-01-25T01:57:43;6.95;;;2.55;;
35685;SDS011;21808;42.142;24.720;2024-01-25T02:00:10;7.20;;;2.22;;
35685;SDS011;21808;42.142;24.720;2024-01-25T02:02:38;7.47;;;2.78;;
35685;SDS011;21808;42.142;24.720;2024-01-25T02:05:05;7.72;;;2.63;;
35685;SDS011;21808;42.142;24.720;2024-01-25T02:07:32;7.03;;;2.45;;
35685;SDS011;21808;42.142;24.720;2024-01-25T02:09:59;5.90;;;2.00;;
35685;SDS011;21808;42.142;24.720;2024-01-25T02:12:26;7.70;;;1.77;;
35685;SDS011;21808;42.142;24.720;2024-01-25T02:14:52;7.38;;;2.42;;
35685;SDS011;21808;42.142;24.720;2024-01-25T02:17:19;6.43;;;1.75;;
35685;SDS011;21808;42.142;24.720;2024-01-25T02:19:47;8.57;;;2.30;;
35685;SDS011;21808;42.142;24.720;2024-01-25T02:22:16;4.80;;;1.83;;
35685;SDS011;21808;42.142;24.720;2024-01-25T02:24:43;6.95;;;2.20;;
35685;SDS011;21808;42.142;24.720;2024-01-25T02:27:10;9.13;;;2.60;;
35685;SDS011;21808;42.142;24.720;2024-01-25T02:29:37;8.10;;;2.38;;
35685;SDS011;21808;42.142;24.720;2024-01-25T02:32:04;5.63;;;1.83;;
35685;SDS011;21808;42.142;24.720;2024-01-25T02:34:31;9.38;;;2.50;;
35685;SDS011;21808;42.142;24.720;2024-01-25T02:36:58;7.88;;;2.03;;
35685;SDS011;21808;42.142;24.720;2024-01-25T02:39:26;9.50;;;2.42;;
35685;SDS011;21808;42.142;24.720;2024-01-25T02:41:52;5.68;;;1.77;;
35685;SDS011;21808;42.142;24.720;2024-01-25T02:44:19;7.72;;;2.15;;
35685;SDS011;21808;42.142;24.720;2024-01-25T02:46:46;5.57;;;1.58;;
35685;SDS011;21808;42.142;24.720;2024-01-25T02:49:13;7.18;;;2.35;;
35685;SDS011;21808;42.142;24.720;2024-01-25T02:51:40;5.43;;;1.70;;
35685;SDS011;21808;42.142;24.720;2024-01-25T02:54:07;5.18;;;1.45;;
35685;SDS011;21808;42.142;24.720;2024-01-25T02:56:35;6.60;;;1.85;;
35685;SDS011;21808;42.142;24.720;2024-01-25T02:59:02;8.55;;;2.17;;
35685;SDS011;21808;42.142;24.720;2024-01-25T03:01:36;8.18;;;2.28;;
35685;SDS011;21808;42.142;24.720;2024-01-25T03:04:03;4.07;;;1.50;;
35685;SDS011;21808;42.142;24.720;2024-01-25T03:06:30;4.70;;;1.50;;
35685;SDS011;21808;42.142;24.720;2024-01-25T03:08:57;6.25;;;2.03;;
35685;SDS011;21808;42.142;24.720;2024-01-25T03:11:24;5.93;;;1.70;;
35685;SDS011;21808;42.142;24.720;2024-01-25T03:13:52;6.32;;;2.00;;
35685;SDS011;21808;42.142;24.720;2024-01-25T03:16:18;6.60;;;1.92;;
35685;SDS011;21808;42.142;24.720;2024-01-25T03:18:45;6.10;;;1.70;;
35685;SDS011;21808;42.142;24.720;2024-01-25T03:21:12;5.85;;;1.50;;
35685;SDS011;21808;42.142;24.720;2024-01-25T03:23:41;6.10;;;1.70;;
35685;SDS011;21808;42.142;24.720;2024-01-25T03:26:08;6.07;;;2.00;;
35685;SDS011;21808;42.142;24.720;2024-01-25T03:28:34;5.88;;;2.00;;
35685;SDS011;21808;42.142;24.720;2024-01-25T03:31:03;5.97;;;1.83;;
35685;SDS011;21808;42.142;24.720;2024-01-25T03:33:30;7.13;;;2.33;;
35685;SDS011;21808;42.142;24.720;2024-01-25T03:36:01;8.18;;;2.10;;
35685;SDS011;21808;42.142;24.720;2024-01-25T03:38:27;7.95;;;2.63;;
35685;SDS011;21808;42.142;24.720;2024-01-25T03:40:54;8.48;;;2.55;;
35685;SDS011;21808;42.142;24.720;2024-01-25T03:43:22;7.18;;;2.05;;
35685;SDS011;21808;42.142;24.720;2024-01-25T03:46:03;7.20;;;2.20;;
35685;SDS011;21808;42.142;24.720;2024-01-25T03:48:31;10.23;;;2.13;;
35685;SDS011;21808;42.142;24.720;2024-01-25T03:50:58;5.88;;;1.90;;
35685;SDS011;21808;42.142;24.720;2024-01-25T03:53:26;6.28;;;1.85;;
35685;SDS011;21808;42.142;24.720;2024-01-25T03:55:53;8.05;;;2.10;;
35685;SDS011;21808;42.142;24.720;2024-01-25T03:58:20;7.25;;;1.92;;
35685;SDS011;21808;42.142;24.720;2024-01-25T04:00:47;4.63;;;1.40;;
35685;SDS011;21808;42.142;24.720;2024-01-25T04:03:14;5.60;;;1.83;;
35685;SDS011;21808;42.142;24.720;2024-01-25T04:05:42;5.60;;;1.63;;
35685;SDS011;21808;42.142;24.720;2024-01-25T04:08:09;4.03;;;1.20;;
35685;SDS011;21808;42.142;24.720;2024-01-25T04:10:36;2.80;;;1.00;;
35685;SDS011;21808;42.142;24.720;2024-01-25T04:13:03;3.78;;;1.02;;
35685;SDS011;21808;42.142;24.720;2024-01-25T04:15:34;5.20;;;1.08;;
35685;SDS011;21808;42.142;24.720;2024-01-25T04:18:01;4.68;;;1.10;;
35685;SDS011;21808;42.142;24.720;2024-01-25T04:20:29;3.10;;;1.00;;
35685;SDS011;21808;42.142;24.720;2024-01-25T04:22:57;3.25;;;1.23;;
35685;SDS011;21808;42.142;24.720;2024-01-25T04:25:24;4.97;;;1.50;;
35685;SDS011;21808;42.142;24.720;2024-01-25T04:27:51;4.70;;;1.58;;
35685;SDS011;21808;42.142;24.720;2024-01-25T04:30:18;3.45;;;1.25;;
35685;SDS011;21808;42.142;24.720;2024-01-25T04:32:45;3.50;;;1.05;;
35685;SDS011;21808;42.142;24.720;2024-01-25T04:35:11;3.95;;;1.20;;
35685;SDS011;21808;42.142;24.720;2024-01-25T04:37:38;3.53;;;1.00;;
35685;SDS011;21808;42.142;24.720;2024-01-25T04:40:07;3.92;;;1.20;;
35685;SDS011;21808;42.142;24.720;2024-01-25T04:42:34;2.53;;;0.95;;
35685;SDS011;21808;42.142;24.720;2024-01-25T04:45:01;4.78;;;1.25;;
35685;SDS011;21808;42.142;24.720;2024-01-25T04:47:28;3.35;;;1.00;;
35685;SDS011;21808;42.142;24.720;2024-01-25T04:49:54;3.58;;;1.02;;
35685;SDS011;21808;42.142;24.720;2024-01-25T04:52:21;3.13;;;1.02;;
35685;SDS011;21808;42.142;24.720;2024-01-25T04:54:48;3.45;;;1.13;;
35685;SDS011;21808;42.142;24.720;2024-01-25T04:57:17;5.60;;;1.20;;
35685;SDS011;21808;42.142;24.720;2024-01-25T04:59:43;3.25;;;0.98;;
35685;SDS011;21808;42.142;24.720;2024-01-25T05:02:10;6.15;;;1.95;;
35685;SDS011;21808;42.142;24.720;2024-01-25T05:04:37;5.60;;;1.40;;
35685;SDS011;21808;42.142;24.720;2024-01-25T05:07:04;5.90;;;1.48;;
35685;SDS011;21808;42.142;24.720;2024-01-25T05:09:31;4.75;;;1.20;;
35685;SDS011;21808;42.142;24.720;2024-01-25T05:11:57;4.78;;;1.10;;
35685;SDS011;21808;42.142;24.720;2024-01-25T05:14:27;2.70;;;0.85;;
35685;SDS011;21808;42.142;24.720;2024-01-25T05:16:54;1.65;;;0.75;;
35685;SDS011;21808;42.142;24.720;2024-01-25T05:19:21;4.03;;;1.30;;
35685;SDS011;21808;42.142;24.720;2024-01-25T05:21:48;2.75;;;0.85;;
35685;SDS011;21808;42.142;24.720;2024-01-25T05:24:15;5.72;;;1.25;;
35685;SDS011;21808;42.142;24.720;2024-01-25T05:26:41;2.83;;;1.00;;
35685;SDS011;21808;42.142;24.720;2024-01-25T05:29:08;4.85;;;1.40;;
35685;SDS011;21808;42.142;24.720;2024-01-25T05:31:36;5.10;;;1.33;;
35685;SDS011;21808;42.142;24.720;2024-01-25T05:34:04;4.18;;;1.50;;
35685;SDS011;21808;42.142;24.720;2024-01-25T05:36:31;4.47;;;1.33;;
35685;SDS011;21808;42.142;24.720;2024-01-25T05:38:57;5.28;;;1.65;;
35685;SDS011;21808;42.142;24.720;2024-01-25T05:41:24;7.95;;;1.95;;
35685;SDS011;21808;42.142;24.720;2024-01-25T05:43:51;5.38;;;1.60;;
35685;SDS011;21808;42.142;24.720;2024-01-25T05:46:17;5.25;;;1.80;;
35685;SDS011;21808;42.142;24.720;2024-01-25T05:48:45;5.43;;;2.53;;
35685;SDS011;21808;42.142;24.720;2024-01-25T05:51:12;4.90;;;2.40;;
35685;SDS011;21808;42.142;24.720;2024-01-25T05:53:40;3.53;;;1.30;;
35685;SDS011;21808;42.142;24.720;2024-01-25T05:56:07;4.88;;;2.35;;
35685;SDS011;21808;42.142;24.720;2024-01-25T05:58:34;4.70;;;2.22;;
35685;SDS011;21808;42.142;24.720;2024-01-25T06:01:01;4.60;;;2.05;;
35685;SDS011;21808;42.142;24.720;2024-01-25T06:03:31;3.08;;;1.33;;
35685;SDS011;21808;42.142;24.720;2024-01-25T06:05:59;2.88;;;1.23;;
35685;SDS011;21808;42.142;24.720;2024-01-25T06:08:27;4.30;;;1.80;;
35685;SDS011;21808;42.142;24.720;2024-01-25T06:10:53;6.38;;;2.10;;
35685;SDS011;21808;42.142;24.720;2024-01-25T06:13:20;4.68;;;1.85;;
35685;SDS011;21808;42.142;24.720;2024-01-25T06:15:47;7.93;;;2.30;;
35685;SDS011;21808;42.142;24.720;2024-01-25T06:18:14;6.45;;;2.38;;
35685;SDS011;21808;42.142;24.720;2024-01-25T06:20:41;13.32;;;3.35;;
35685;SDS011;21808;42.142;24.720;2024-01-25T06:23:09;4.60;;;1.65;;
35685;SDS011;21808;42.142;24.720;2024-01-25T06:25:41;9.20;;;2.10;;
35685;SDS011;21808;42.142;24.720;2024-01-25T06:28:11;6.20;;;2.15;;
35685;SDS011;21808;42.142;24.720;2024-01-25T06:30:38;7.63;;;2.60;;
35685;SDS011;21808;42.142;24.720;2024-01-25T06:33:05;5.45;;;2.50;;
35685;SDS011;21808;42.142;24.720;2024-01-25T06:35:32;5.07;;;2.40;;
35685;SDS011;21808;42.142;24.720;2024-01-25T06:38:01;11.77;;;3.40;;
35685;SDS011;21808;42.142;24.720;2024-01-25T06:40:29;10.27;;;4.07;;
35685;SDS011;21808;42.142;24.720;2024-01-25T06:42:56;12.38;;;2.00;;
35685;SDS011;21808;42.142;24.720;2024-01-25T06:45:23;6.15;;;3.55;;
35685;SDS011;21808;42.142;24.720;2024-01-25T06:47:50;3.75;;;1.77;;
35685;SDS011;21808;42.142;24.720;2024-01-25T06:50:16;5.88;;;2.33;;
35685;SDS011;21808;42.142;24.720;2024-01-25T06:52:51;7.57;;;2.47;;
35685;SDS011;21808;42.142;24.720;2024-01-25T06:55:20;4.30;;;2.20;;
35685;SDS011;21808;42.142;24.720;2024-01-25T06:57:48;15.05;;;2.20;;
35685;SDS011;21808;42.142;24.720;2024-01-25T07:00:18;3.55;;;1.50;;
35685;SDS011;21808;42.142;24.720;2024-01-25T07:02:49;5.72;;;1.92;;
35685;SDS011;21808;42.142;24.720;2024-01-25T07:05:17;4.60;;;1.50;;
35685;SDS011;21808;42.142;24.720;2024-01-25T07:07:47;5.60;;;1.75;;
35685;SDS011;21808;42.142;24.720;2024-01-25T07:10:16;10.63;;;2.88;;
35685;SDS011;21808;42.142;24.720;2024-01-25T07:12:44;8.63;;;2.00;;
35685;SDS011;21808;42.142;24.720;2024-01-25T07:15:12;3.80;;;1.92;;
35685;SDS011;21808;42.142;24.720;2024-01-25T07:17:39;8.20;;;2.35;;
35685;SDS011;21808;42.142;24.720;2024-01-25T07:20:09;7.78;;;2.10;;
35685;SDS011;21808;42.142;24.720;2024-01-25T07:22:36;5.68;;;2.00;;
35685;SDS011;21808;42.142;24.720;2024-01-25T07:25:03;5.32;;;2.10;;
35685;SDS011;21808;42.142;24.720;2024-01-25T07:27:31;5.82;;;1.73;;
35685;SDS011;21808;42.142;24.720;2024-01-25T07:30:01;7.68;;;1.92;;
35685;SDS011;21808;42.142;24.720;2024-01-25T07:32:29;7.25;;;1.60;;
35685;SDS011;21808;42.142;24.720;2024-01-25T07:34:59;10.30;;;2.45;;
35685;SDS011;21808;42.142;24.720;2024-01-25T07:37:25;7.25;;;2.08;;
35685;SDS011;21808;42.142;24.720;2024-01-25T07:39:52;9.50;;;2.20;;
35685;SDS011;21808;42.142;24.720;2024-01-25T07:42:19;5.03;;;1.35;;
35685;SDS011;21808;42.142;24.720;2024-01-25T07:44:48;5.85;;;1.40;;
35685;SDS011;21808;42.142;24.720;2024-01-25T07:47:15;6.68;;;1.88;;
35685;SDS011;21808;42.142;24.720;2024-01-25T07:49:43;7.43;;;1.33;;
35685;SDS011;21808;42.142;24.720;2024-01-25T07:52:10;11.18;;;2.15;;
35685;SDS011;21808;42.142;24.720;2024-01-25T07:54:37;7.72;;;1.45;;
35685;SDS011;21808;42.142;24.720;2024-01-25T07:57:07;11.27;;;2.47;;
35685;SDS011;21808;42.142;24.720;2024-01-25T07:59:33;9.40;;;1.70;;
35685;SDS011;21808;42.142;24.720;2024-01-25T08:02:00;6.50;;;1.63;;
35685;SDS011;21808;42.142;24.720;2024-01-25T08:04:27;6.10;;;1.40;;
35685;SDS011;21808;42.142;24.720;2024-01-25T08:06:58;9.23;;;2.22;;
35685;SDS011;21808;42.142;24.720;2024-01-25T08:11:52;6.35;;;1.77;;
35685;SDS011;21808;42.142;24.720;2024-01-25T08:14:19;6.93;;;1.95;;
35685;SDS011;21808;42.142;24.720;2024-01-25T08:16:45;5.43;;;1.90;;
35685;SDS011;21808;42.142;24.720;2024-01-25T08:19:12;7.13;;;1.95;;
35685;SDS011;21808;42.142;24.720;2024-01-25T08:21:39;12.52;;;2.35;;
35685;SDS011;21808;42.142;24.720;2024-01-25T08:24:08;8.25;;;2.15;;
35685;SDS011;21808;42.142;24.720;2024-01-25T08:26:35;6.88;;;2.10;;
35685;SDS011;21808;42.142;24.720;2024-01-25T08:29:01;5.38;;;1.73;;
35685;SDS011;21808;42.142;24.720;2024-01-25T08:31:28;7.95;;;2.40;;
35685;SDS011;21808;42.142;24.720;2024-01-25T08:33:55;6.15;;;2.75;;
35685;SDS011;21808;42.142;24.720;2024-01-25T08:36:22;7.97;;;1.90;;
35685;SDS011;21808;42.142;24.720;2024-01-25T08:38:49;9.57;;;2.05;;
35685;SDS011;21808;42.142;24.720;2024-01-25T08:41:17;8.68;;;2.38;;
35685;SDS011;21808;42.142;24.720;2024-01-25T08:43:44;8.52;;;1.75;;
35685;SDS011;21808;42.142;24.720;2024-01-25T08:46:12;6.63;;;2.28;;
35685;SDS011;21808;42.142;24.720;2024-01-25T08:48:40;8.25;;;1.90;;
35685;SDS011;21808;42.142;24.720;2024-01-25T08:51:07;12.25;;;2.38;;
35685;SDS011;21808;42.142;24.720;2024-01-25T08:53:37;9.65;;;2.25;;
35685;SDS011;21808;42.142;24.720;2024-01-25T08:56:04;9.57;;;2.17;;
35685;SDS011;21808;42.142;24.720;2024-01-25T08:58:33;10.00;;;1.98;;
35685;SDS011;21808;42.142;24.720;2024-01-25T09:01:00;10.05;;;2.63;;
35685;SDS011;21808;42.142;24.720;2024-01-25T09:03:27;5.38;;;1.73;;
35685;SDS011;21808;42.142;24.720;2024-01-25T09:05:54;6.88;;;2.03;;
35685;SDS011;21808;42.142;24.720;2024-01-25T09:08:21;11.40;;;2.83;;
35685;SDS011;21808;42.142;24.720;2024-01-25T09:10:49;10.95;;;2.88;;
35685;SDS011;21808;42.142;24.720;2024-01-25T09:13:18;11.02;;;2.85;;
35685;SDS011;21808;42.142;24.720;2024-01-25T09:15:48;11.98;;;3.22;;
35685;SDS011;21808;42.142;24.720;2024-01-25T09:18:15;9.30;;;1.92;;
35685;SDS011;21808;42.142;24.720;2024-01-25T09:20:42;11.52;;;2.67;;
35685;SDS011;21808;42.142;24.720;2024-01-25T09:23:14;8.82;;;1.95;;
35685;SDS011;21808;42.142;24.720;2024-01-25T09:25:47;9.15;;;2.08;;
35685;SDS011;21808;42.142;24.720;2024-01-25T09:28:16;8.00;;;2.60;;
35685;SDS011;21808;42.142;24.720;2024-01-25T09:30:43;9.10;;;2.30;;
35685;SDS011;21808;42.142;24.720;2024-01-25T09:33:12;6.93;;;2.05;;
35685;SDS011;21808;42.142;24.720;2024-01-25T09:35:39;8.30;;;2.20;;
35685;SDS011;21808;42.142;24.720;2024-01-25T09:38:06;8.60;;;1.90;;
35685;SDS011;21808;42.142;24.720;2024-01-25T09:40:33;7.82;;;2.00;;
35685;SDS011;21808;42.142;24.720;2024-01-25T09:43:04;15.13;;;3.28;;
35685;SDS011;21808;42.142;24.720;2024-01-25T09:45:31;9.88;;;1.98;;
35685;SDS011;21808;42.142;24.720;2024-01-25T09:47:58;12.43;;;2.67;;
35685;SDS011;21808;42.142;24.720;2024-01-25T09:50:27;10.27;;;2.13;;
35685;SDS011;21808;42.142;24.720;2024-01-25T09:53:00;9.02;;;2.20;;
35685;SDS011;21808;42.142;24.720;2024-01-25T09:55:29;6.75;;;2.20;;
35685;SDS011;21808;42.142;24.720;2024-01-25T09:58:00;6.57;;;1.85;;
35685;SDS011;21808;42.142;24.720;2024-01-25T10:00:31;10.65;;;3.10;;
35685;SDS011;21808;42.142;24.720;2024-01-25T10:02:59;11.65;;;2.78;;
35685;SDS011;21808;42.142;24.720;2024-01-25T10:05:27;7.15;;;2.03;;
35685;SDS011;21808;42.142;24.720;2024-01-25T10:07:54;9.15;;;2.42;;
35685;SDS011;21808;42.142;24.720;2024-01-25T10:10:32;9.52;;;2.40;;
35685;SDS011;21808;42.142;24.720;2024-01-25T10:12:59;8.98;;;2.47;;
35685;SDS011;21808;42.142;24.720;2024-01-25T10:15:25;9.65;;;1.90;;
35685;SDS011;21808;42.142;24.720;2024-01-25T10:17:53;8.73;;;2.38;;
35685;SDS011;21808;42.142;24.720;2024-01-25T10:20:43;6.45;;;1.80;;
35685;SDS011;21808;42.142;24.720;2024-01-25T10:23:12;9.63;;;1.88;;
35685;SDS011;21808;42.142;24.720;2024-01-25T10:25:39;10.38;;;2.28;;
35685;SDS011;21808;42.142;24.720;2024-01-25T10:28:07;7.93;;;2.50;;
35685;SDS011;21808;42.142;24.720;2024-01-25T10:30:34;7.82;;;1.80;;
35685;SDS011;21808;42.142;24.720;2024-01-25T10:33:02;9.10;;;1.98;;
35685;SDS011;21808;42.142;24.720;2024-01-25T10:35:31;9.85;;;2.30;;
35685;SDS011;21808;42.142;24.720;2024-01-25T10:38:00;12.05;;;2.47;;
35685;SDS011;21808;42.142;24.720;2024-01-25T10:40:36;9.48;;;2.20;;
35685;SDS011;21808;42.142;24.720;2024-01-25T10:43:04;12.30;;;2.28;;
35685;SDS011;21808;42.142;24.720;2024-01-25T10:45:33;10.25;;;2.20;;
35685;SDS011;21808;42.142;24.720;2024-01-25T10:48:00;9.18;;;2.33;;
35685;SDS011;21808;42.142;24.720;2024-01-25T10:50:27;9.98;;;2.63;;
35685;SDS011;21808;42.142;24.720;2024-01-25T10:52:55;12.30;;;2.72;;
35685;SDS011;21808;42.142;24.720;2024-01-25T10:55:23;11.63;;;2.47;;
35685;SDS011;21808;42.142;24.720;2024-01-25T10:57:53;9.25;;;2.65;;
35685;SDS011;21808;42.142;24.720;2024-01-25T11:00:20;7.55;;;2.13;;
35685;SDS011;21808;42.142;24.720;2024-01-25T11:02:47;12.98;;;4.00;;
35685;SDS011;21808;42.142;24.720;2024-01-25T11:05:18;10.18;;;1.92;;
35685;SDS011;21808;42.142;24.720;2024-01-25T11:07:47;11.85;;;2.72;;
35685;SDS011;21808;42.142;24.720;2024-01-25T11:10:17;9.43;;;2.20;;
35685;SDS011;21808;42.142;24.720;2024-01-25T11:12:50;8.65;;;2.33;;
35685;SDS011;21808;42.142;24.720;2024-01-25T11:15:21;11.32;;;2.40;;
35685;SDS011;21808;42.142;24.720;2024-01-25T11:17:51;11.70;;;2.45;;
35685;SDS011;21808;42.142;24.720;2024-01-25T11:20:19;9.68;;;2.00;;
35685;SDS011;21808;42.142;24.720;2024-01-25T11:22:47;10.02;;;3.00;;
35685;SDS011;21808;42.142;24.720;2024-01-25T11:25:18;13.57;;;2.30;;
35685;SDS011;21808;42.142;24.720;2024-01-25T11:27:47;8.98;;;2.00;;
35685;SDS011;21808;42.142;24.720;2024-01-25T11:30:19;9.30;;;2.53;;
35685;SDS011;21808;42.142;24.720;2024-01-25T11:32:46;11.80;;;2.85;;
35685;SDS011;21808;42.142;24.720;2024-01-25T11:35:14;9.10;;;2.30;;
35685;SDS011;21808;42.142;24.720;2024-01-25T11:37:43;14.50;;;2.67;;
35685;SDS011;21808;42.142;24.720;2024-01-25T11:40:11;6.25;;;1.85;;
35685;SDS011;21808;42.142;24.720;2024-01-25T11:42:38;15.32;;;2.78;;
35685;SDS011;21808;42.142;24.720;2024-01-25T11:45:11;10.05;;;2.75;;
35685;SDS011;21808;42.142;24.720;2024-01-25T11:47:42;8.85;;;2.50;;
35685;SDS011;21808;42.142;24.720;2024-01-25T11:50:09;11.73;;;2.25;;
35685;SDS011;21808;42.142;24.720;2024-01-25T11:52:38;7.60;;;2.47;;
35685;SDS011;21808;42.142;24.720;2024-01-25T11:55:05;10.13;;;2.80;;
35685;SDS011;21808;42.142;24.720;2024-01-25T11:57:33;9.95;;;2.50;;
35685;SDS011;21808;42.142;24.720;2024-01-25T12:00:01;14.45;;;2.60;;
35685;SDS011;21808;42.142;24.720;2024-01-25T12:02:28;9.27;;;2.30;;
35685;SDS011;21808;42.142;24.720;2024-01-25T12:04:57;8.13;;;1.88;;
35685;SDS011;21808;42.142;24.720;2024-01-25T12:07:24;9.40;;;2.13;;
35685;SDS011;21808;42.142;24.720;2024-01-25T12:09:58;11.48;;;2.97;;
35685;SDS011;21808;42.142;24.720;2024-01-25T12:12:25;10.43;;;2.80;;
35685;SDS011;21808;42.142;24.720;2024-01-25T12:14:57;9.38;;;2.50;;
35685;SDS011;21808;42.142;24.720;2024-01-25T12:17:24;9.45;;;2.53;;
35685;SDS011;21808;42.142;24.720;2024-01-25T12:19:54;14.10;;;2.95;;
35685;SDS011;21808;42.142;24.720;2024-01-25T12:22:26;12.65;;;2.80;;
35685;SDS011;21808;42.142;24.720;2024-01-25T12:24:53;9.98;;;2.83;;
35685;SDS011;21808;42.142;24.720;2024-01-25T12:27:26;10.13;;;2.03;;
35685;SDS011;21808;42.142;24.720;2024-01-25T12:29:57;11.02;;;1.90;;
35685;SDS011;21808;42.142;24.720;2024-01-25T12:32:24;8.45;;;2.00;;
35685;SDS011;21808;42.142;24.720;2024-01-25T12:34:54;9.98;;;2.30;;
35685;SDS011;21808;42.142;24.720;2024-01-25T12:37:21;9.20;;;2.55;;
35685;SDS011;21808;42.142;24.720;2024-01-25T12:39:52;15.10;;;2.70;;
35685;SDS011;21808;42.142;24.720;2024-01-25T12:42:21;9.05;;;2.65;;
35685;SDS011;21808;42.142;24.720;2024-01-25T12:44:48;10.02;;;2.00;;
35685;SDS011;21808;42.142;24.720;2024-01-25T12:47:15;6.40;;;1.52;;
35685;SDS011;21808;42.142;24.720;2024-01-25T12:49:42;10.07;;;2.13;;
35685;SDS011;21808;42.142;24.720;2024-01-25T12:52:09;9.77;;;1.52;;
35685;SDS011;21808;42.142;24.720;2024-01-25T12:54:36;10.88;;;2.28;;
35685;SDS011;21808;42.142;24.720;2024-01-25T12:57:05;11.18;;;2.70;;
35685;SDS011;21808;42.142;24.720;2024-01-25T12:59:35;8.50;;;2.10;;
35685;SDS011;21808;42.142;24.720;2024-01-25T13:02:02;10.10;;;2.05;;
35685;SDS011;21808;42.142;24.720;2024-01-25T13:04:30;5.53;;;1.52;;
35685;SDS011;21808;42.142;24.720;2024-01-25T13:06:57;6.80;;;1.73;;
35685;SDS011;21808;42.142;24.720;2024-01-25T13:09:24;9.93;;;2.70;;
35685;SDS011;21808;42.142;24.720;2024-01-25T13:11:51;9.93;;;1.92;;
35685;SDS011;21808;42.142;24.720;2024-01-25T13:14:20;9.80;;;2.53;;
35685;SDS011;21808;42.142;24.720;2024-01-25T13:16:47;9.73;;;2.28;;
35685;SDS011;21808;42.142;24.720;2024-01-25T13:19:13;9.13;;;2.42;;
35685;SDS011;21808;42.142;24.720;2024-01-25T13:21:40;9.23;;;2.08;;
35685;SDS011;21808;42.142;24.720;2024-01-25T13:24:07;7.10;;;1.80;;
35685;SDS011;21808;42.142;24.720;2024-01-25T13:26:35;9.05;;;2.75;;
35685;SDS011;21808;42.142;24.720;2024-01-25T13:29:02;9.65;;;4.45;;
35685;SDS011;21808;42.142;24.720;2024-01-25T13:31:32;10.00;;;4.30;;
35685;SDS011;21808;42.142;24.720;2024-01-25T13:33:58;10.52;;;2.60;;
35685;SDS011;21808;42.142;24.720;2024-01-25T13:36:25;11.13;;;2.67;;
35685;SDS011;21808;42.142;24.720;2024-01-25T13:38:52;7.88;;;2.10;;
35685;SDS011;21808;42.142;24.720;2024-01-25T13:41:19;11.48;;;2.70;;
35685;SDS011;21808;42.142;24.720;2024-01-25T13:43:47;10.23;;;2.33;;
35685;SDS011;21808;42.142;24.720;2024-01-25T13:46:14;9.35;;;2.80;;
35685;SDS011;21808;42.142;24.720;2024-01-25T13:48:43;11.85;;;3.15;;
35685;SDS011;21808;42.142;24.720;2024-01-25T13:51:10;11.27;;;2.88;;
35685;SDS011;21808;42.142;24.720;2024-01-25T13:53:39;8.73;;;2.00;;
35685;SDS011;21808;42.142;24.720;2024-01-25T13:56:06;10.57;;;2.63;;
35685;SDS011;21808;42.142;24.720;2024-01-25T13:58:33;9.45;;;2.50;;
35685;SDS011;21808;42.142;24.720;2024-01-25T14:01:00;7.03;;;2.08;;
35685;SDS011;21808;42.142;24.720;2024-01-25T14:03:27;10.00;;;2.88;;
35685;SDS011;21808;42.142;24.720;2024-01-25T14:05:55;12.73;;;2.50;;
35685;SDS011;21808;42.142;24.720;2024-01-25T14:08:24;10.45;;;2.72;;
35685;SDS011;21808;42.142;24.720;2024-01-25T14:10:50;12.15;;;2.80;;
35685;SDS011;21808;42.142;24.720;2024-01-25T14:13:17;10.48;;;2.25;;
35685;SDS011;21808;42.142;24.720;2024-01-25T14:15:44;8.57;;;2.10;;
35685;SDS011;21808;42.142;24.720;2024-01-25T14:18:11;7.63;;;1.80;;
35685;SDS011;21808;42.142;24.720;2024-01-25T14:20:41;9.88;;;2.70;;
35685;SDS011;21808;42.142;24.720;2024-01-25T14:23:09;12.38;;;2.63;;
35685;SDS011;21808;42.142;24.720;2024-01-25T14:25:36;12.98;;;2.70;;
35685;SDS011;21808;42.142;24.720;2024-01-25T14:28:03;9.48;;;2.53;;
35685;SDS011;21808;42.142;24.720;2024-01-25T14:30:31;15.60;;;4.70;;
35685;SDS011;21808;42.142;24.720;2024-01-25T14:32:59;10.80;;;2.58;;
35685;SDS011;21808;42.142;24.720;2024-01-25T14:35:34;8.85;;;2.22;;
35685;SDS011;21808;42.142;24.720;2024-01-25T14:38:01;11.38;;;2.33;;